createdAt,value
2023-07-12T00:32:45.343Z,32.26
2023-07-12T01:12:45.254Z,32.26
2023-07-12T01:32:45.260Z,32.26
2023-07-12T01:52:45.216Z,32.26
2023-07-12T02:12:45.205Z,32.25
2023-07-12T02:32:44.451Z,32.26
2023-07-12T02:52:45.157Z,32.25
2023-07-12T03:12:45.149Z,32.26
2023-07-12T04:32:45.110Z,32.25
2023-07-12T04:52:45.041Z,32.26
2023-07-12T05:12:45.060Z,32.25
2023-07-12T05:32:45.029Z,32.25
2023-07-12T05:52:46.023Z,32.25
2023-07-12T06:12:44.983Z,32.25
2023-07-12T06:32:44.999Z,32.25
2023-07-12T06:52:44.971Z,32.25
2023-07-12T07:12:44.808Z,32.25
2023-07-12T07:32:44.934Z,32.25
2023-07-12T07:52:44.405Z,32.25
2023-07-12T08:12:44.871Z,32.25
2023-07-12T08:32:44.344Z,32.25
2023-07-12T08:52:44.860Z,32.24
2023-07-12T09:12:44.813Z,32.24
2023-07-12T09:32:44.869Z,32.24
2023-07-12T09:52:44.838Z,32.23
2023-07-12T10:12:44.785Z,32.23
2023-07-12T10:32:44.701Z,32.23
2023-07-12T10:52:44.739Z,32.23
2023-07-12T11:12:43.945Z,32.22
2023-07-12T11:32:44.734Z,32.22
2023-07-12T11:52:44.713Z,32.2
2023-07-12T12:12:44.669Z,32.2
2023-07-12T12:32:44.504Z,32.19
2023-07-12T14:32:44.545Z,32.15
2023-07-12T14:52:44.511Z,32.15
2023-07-12T15:32:44.484Z,32.14
2023-07-12T15:52:44.468Z,32.14
2023-07-12T16:12:44.456Z,32.14
2023-07-12T16:32:44.429Z,32.14
2023-07-12T16:52:44.401Z,32.13
2023-07-12T17:12:44.398Z,32.13
2023-07-12T17:32:44.394Z,32.13
2023-07-12T17:52:43.241Z,32.13
2023-07-12T18:12:43.570Z,32.13
2023-07-12T18:32:44.341Z,32.13
2023-07-12T19:52:44.246Z,32.13
2023-07-12T20:12:44.224Z,32.13
2023-07-12T20:32:44.227Z,32.13
2023-07-12T20:52:44.232Z,32.13
2023-07-12T21:12:44.157Z,32.13
2023-07-12T21:32:44.194Z,32.13
2023-07-12T22:12:44.153Z,32.13
2023-07-12T22:32:44.117Z,32.13
2023-07-12T22:52:44.083Z,32.13
2023-07-12T23:12:44.064Z,32.13
2023-07-12T23:32:43.290Z,32.13
2023-07-12T23:52:43.494Z,32.13
